sensor_id;sensor_type;location;lat;lon;timestamp;temperature;humidity
46932;DHT22;32670;51.464;11.964;2023-06-10T00:00:50;25.10;43.50
46932;DHT22;32670;51.464;11.964;2023-06-10T00:03:16;25.00;43.60
46932;DHT22;32670;51.464;11.964;2023-06-10T00:05:41;25.00;43.70
46932;DHT22;32670;51.464;11.964;2023-06-10T00:08:07;25.00;43.90
46932;DHT22;32670;51.464;11.964;2023-06-10T00:10:37;25.00;44.60
46932;DHT22;32670;51.464;11.964;2023-06-10T00:13:04;25.00;44.20
46932;DHT22;32670;51.464;11.964;2023-06-10T00:15:30;25.00;44.20
46932;DHT22;32670;51.464;11.964;2023-06-10T00:17:56;25.00;44.20
46932;DHT22;32670;51.464;11.964;2023-06-10T00:20:21;25.00;44.50
46932;DHT22;32670;51.464;11.964;2023-06-10T00:22:49;25.00;44.40
46932;DHT22;32670;51.464;11.964;2023-06-10T00:25:15;24.90;44.40
46932;DHT22;32670;51.464;11.964;2023-06-10T00:27:40;24.90;44.40
46932;DHT22;32670;51.464;11.964;2023-06-10T00:30:06;24.90;44.40
46932;DHT22;32670;51.464;11.964;2023-06-10T00:32:36;24.90;44.50
46932;DHT22;32670;51.464;11.964;2023-06-10T00:35:05;24.90;44.60
46932;DHT22;32670;51.464;11.964;2023-06-10T00:37:31;24.90;44.60
46932;DHT22;32670;51.464;11.964;2023-06-10T00:39:57;24.90;44.80
46932;DHT22;32670;51.464;11.964;2023-06-10T00:42:23;24.90;44.80
46932;DHT22;32670;51.464;11.964;2023-06-10T00:44:50;24.90;44.90
46932;DHT22;32670;51.464;11.964;2023-06-10T00:47:15;24.80;44.90
46932;DHT22;32670;51.464;11.964;2023-06-10T00:49:41;24.80;44.90
46932;DHT22;32670;51.464;11.964;2023-06-10T00:52:07;24.80;44.90
46932;DHT22;32670;51.464;11.964;2023-06-10T00:54:33;24.80;45.00
46932;DHT22;32670;51.464;11.964;2023-06-10T00:57:01;24.80;45.00
46932;DHT22;32670;51.464;11.964;2023-06-10T00:59:29;24.80;45.00
46932;DHT22;32670;51.464;11.964;2023-06-10T01:01:55;24.80;45.00
46932;DHT22;32670;51.464;11.964;2023-06-10T01:04:21;24.80;45.00
46932;DHT22;32670;51.464;11.964;2023-06-10T01:06:55;24.80;44.90
46932;DHT22;32670;51.464;11.964;2023-06-10T01:09:38;24.80;45.00
46932;DHT22;32670;51.464;11.964;2023-06-10T01:12:31;24.80;45.00
46932;DHT22;32670;51.464;11.964;2023-06-10T01:15:00;24.80;45.00
46932;DHT22;32670;51.464;11.964;2023-06-10T01:17:26;24.70;45.00
46932;DHT22;32670;51.464;11.964;2023-06-10T01:19:54;24.70;45.00
46932;DHT22;32670;51.464;11.964;2023-06-10T01:22:21;24.70;45.10
46932;DHT22;32670;51.464;11.964;2023-06-10T01:24:48;24.70;45.00
46932;DHT22;32670;51.464;11.964;2023-06-10T01:27:16;24.70;45.10
46932;DHT22;32670;51.464;11.964;2023-06-10T01:29:45;24.70;45.20
46932;DHT22;32670;51.464;11.964;2023-06-10T01:32:18;24.60;45.20
46932;DHT22;32670;51.464;11.964;2023-06-10T01:34:47;24.70;45.30
46932;DHT22;32670;51.464;11.964;2023-06-10T01:37:17;24.60;45.30
46932;DHT22;32670;51.464;11.964;2023-06-10T01:39:43;24.60;45.40
46932;DHT22;32670;51.464;11.964;2023-06-10T01:42:11;24.60;45.50
46932;DHT22;32670;51.464;11.964;2023-06-10T01:44:38;24.60;45.60
46932;DHT22;32670;51.464;11.964;2023-06-10T01:47:04;24.60;45.70
46932;DHT22;32670;51.464;11.964;2023-06-10T01:49:30;24.60;45.80
46932;DHT22;32670;51.464;11.964;2023-06-10T01:51:55;24.60;46.00
46932;DHT22;32670;51.464;11.964;2023-06-10T01:54:21;24.60;46.00
46932;DHT22;32670;51.464;11.964;2023-06-10T01:56:46;24.60;46.10
46932;DHT22;32670;51.464;11.964;2023-06-10T01:59:11;24.60;46.20
46932;DHT22;32670;51.464;11.964;2023-06-10T02:01:37;24.60;46.20
46932;DHT22;32670;51.464;11.964;2023-06-10T02:04:02;24.60;46.20
46932;DHT22;32670;51.464;11.964;2023-06-10T02:06:28;24.50;46.30
46932;DHT22;32670;51.464;11.964;2023-06-10T02:08:53;24.50;46.50
46932;DHT22;32670;51.464;11.964;2023-06-10T02:11:19;24.50;46.50
46932;DHT22;32670;51.464;11.964;2023-06-10T02:13:44;24.50;47.20
46932;DHT22;32670;51.464;11.964;2023-06-10T02:16:10;24.50;46.70
46932;DHT22;32670;51.464;11.964;2023-06-10T02:18:38;24.50;46.80
46932;DHT22;32670;51.464;11.964;2023-06-10T02:21:06;24.50;46.80
46932;DHT22;32670;51.464;11.964;2023-06-10T02:23:32;24.50;46.90
46932;DHT22;32670;51.464;11.964;2023-06-10T02:25:57;24.50;47.00
46932;DHT22;32670;51.464;11.964;2023-06-10T02:28:23;24.50;47.10
46932;DHT22;32670;51.464;11.964;2023-06-10T02:30:48;24.50;47.20
46932;DHT22;32670;51.464;11.964;2023-06-10T02:33:14;24.50;47.20
46932;DHT22;32670;51.464;11.964;2023-06-10T02:35:40;24.50;47.20
46932;DHT22;32670;51.464;11.964;2023-06-10T02:38:05;24.40;47.40
46932;DHT22;32670;51.464;11.964;2023-06-10T02:40:31;24.40;47.30
46932;DHT22;32670;51.464;11.964;2023-06-10T02:42:57;24.40;47.30
46932;DHT22;32670;51.464;11.964;2023-06-10T02:45:23;24.40;47.30
46932;DHT22;32670;51.464;11.964;2023-06-10T02:47:49;24.40;47.50
46932;DHT22;32670;51.464;11.964;2023-06-10T02:50:14;24.40;47.50
46932;DHT22;32670;51.464;11.964;2023-06-10T02:52:40;24.40;48.10
46932;DHT22;32670;51.464;11.964;2023-06-10T02:55:06;24.40;47.60
46932;DHT22;32670;51.464;11.964;2023-06-10T02:57:32;24.40;47.70
46932;DHT22;32670;51.464;11.964;2023-06-10T02:59:57;24.40;47.90
46932;DHT22;32670;51.464;11.964;2023-06-10T03:02:24;24.30;47.80
46932;DHT22;32670;51.464;11.964;2023-06-10T03:04:55;24.30;47.90
46932;DHT22;32670;51.464;11.964;2023-06-10T03:07:21;24.30;48.00
46932;DHT22;32670;51.464;11.964;2023-06-10T03:09:46;24.30;48.10
46932;DHT22;32670;51.464;11.964;2023-06-10T03:12:12;24.30;48.10
46932;DHT22;32670;51.464;11.964;2023-06-10T03:14:37;24.30;48.10
46932;DHT22;32670;51.464;11.964;2023-06-10T03:17:04;24.30;48.20
46932;DHT22;32670;51.464;11.964;2023-06-10T03:19:31;24.30;48.20
46932;DHT22;32670;51.464;11.964;2023-06-10T03:22:08;24.20;48.90
46932;DHT22;32670;51.464;11.964;2023-06-10T03:24:33;24.20;48.30
46932;DHT22;32670;51.464;11.964;2023-06-10T03:26:59;24.20;48.30
46932;DHT22;32670;51.464;11.964;2023-06-10T03:29:25;24.20;48.50
46932;DHT22;32670;51.464;11.964;2023-06-10T03:31:51;24.20;48.70
46932;DHT22;32670;51.464;11.964;2023-06-10T03:34:16;24.20;48.60
46932;DHT22;32670;51.464;11.964;2023-06-10T03:36:42;24.20;48.60
46932;DHT22;32670;51.464;11.964;2023-06-10T03:39:08;24.10;48.60
46932;DHT22;32670;51.464;11.964;2023-06-10T03:41:34;24.10;48.50
46932;DHT22;32670;51.464;11.964;2023-06-10T03:43:59;24.10;48.70
46932;DHT22;32670;51.464;11.964;2023-06-10T03:46:25;24.10;48.70
46932;DHT22;32670;51.464;11.964;2023-06-10T03:48:51;24.10;48.80
46932;DHT22;32670;51.464;11.964;2023-06-10T03:51:16;24.10;48.70
46932;DHT22;32670;51.464;11.964;2023-06-10T03:53:42;24.00;48.90
46932;DHT22;32670;51.464;11.964;2023-06-10T03:56:07;24.10;48.90
46932;DHT22;32670;51.464;11.964;2023-06-10T03:58:33;24.10;49.00
46932;DHT22;32670;51.464;11.964;2023-06-10T04:00:58;24.00;49.00
46932;DHT22;32670;51.464;11.964;2023-06-10T04:03:24;24.00;49.00
46932;DHT22;32670;51.464;11.964;2023-06-10T04:05:49;24.10;49.10
46932;DHT22;32670;51.464;11.964;2023-06-10T04:08:15;24.00;49.10
46932;DHT22;32670;51.464;11.964;2023-06-10T04:10:41;24.00;49.20
46932;DHT22;32670;51.464;11.964;2023-06-10T04:13:06;24.00;49.30
46932;DHT22;32670;51.464;11.964;2023-06-10T04:15:32;24.00;49.30
46932;DHT22;32670;51.464;11.964;2023-06-10T04:17:58;24.00;49.50
46932;DHT22;32670;51.464;11.964;2023-06-10T04:20:24;24.00;49.40
46932;DHT22;32670;51.464;11.964;2023-06-10T04:22:49;24.00;49.50
46932;DHT22;32670;51.464;11.964;2023-06-10T04:25:15;24.00;49.30
46932;DHT22;32670;51.464;11.964;2023-06-10T04:27:41;24.00;49.60
46932;DHT22;32670;51.464;11.964;2023-06-10T04:30:07;24.00;49.70
46932;DHT22;32670;51.464;11.964;2023-06-10T04:32:32;24.00;49.60
46932;DHT22;32670;51.464;11.964;2023-06-10T04:34:59;24.00;49.50
46932;DHT22;32670;51.464;11.964;2023-06-10T04:37:24;24.00;49.40
46932;DHT22;32670;51.464;11.964;2023-06-10T04:39:50;24.00;49.40
46932;DHT22;32670;51.464;11.964;2023-06-10T04:42:15;24.00;49.50
46932;DHT22;32670;51.464;11.964;2023-06-10T04:44:41;24.00;49.40
46932;DHT22;32670;51.464;11.964;2023-06-10T04:47:06;24.00;49.40
46932;DHT22;32670;51.464;11.964;2023-06-10T04:49:33;24.00;49.50
46932;DHT22;32670;51.464;11.964;2023-06-10T04:51:58;24.00;49.40
46932;DHT22;32670;51.464;11.964;2023-06-10T04:54:25;24.00;49.50
46932;DHT22;32670;51.464;11.964;2023-06-10T04:56:50;24.00;49.40
46932;DHT22;32670;51.464;11.964;2023-06-10T04:59:16;24.00;49.50
46932;DHT22;32670;51.464;11.964;2023-06-10T05:01:41;24.00;49.60
46932;DHT22;32670;51.464;11.964;2023-06-10T05:04:07;24.00;49.50
46932;DHT22;32670;51.464;11.964;2023-06-10T05:06:32;24.00;49.60
46932;DHT22;32670;51.464;11.964;2023-06-10T05:08:57;24.00;49.70
46932;DHT22;32670;51.464;11.964;2023-06-10T05:11:23;24.10;49.70
46932;DHT22;32670;51.464;11.964;2023-06-10T05:13:48;24.10;50.10
46932;DHT22;32670;51.464;11.964;2023-06-10T05:16:14;24.10;49.90
46932;DHT22;32670;51.464;11.964;2023-06-10T05:18:40;24.00;49.60
46932;DHT22;32670;51.464;11.964;2023-06-10T05:21:05;24.10;49.60
46932;DHT22;32670;51.464;11.964;2023-06-10T05:23:31;24.10;49.70
46932;DHT22;32670;51.464;11.964;2023-06-10T05:25:57;24.10;49.60
46932;DHT22;32670;51.464;11.964;2023-06-10T05:28:23;24.10;49.60
46932;DHT22;32670;51.464;11.964;2023-06-10T05:30:48;24.10;49.70
46932;DHT22;32670;51.464;11.964;2023-06-10T05:33:15;24.10;49.80
46932;DHT22;32670;51.464;11.964;2023-06-10T05:35:40;24.10;49.80
46932;DHT22;32670;51.464;11.964;2023-06-10T05:38:06;24.10;50.30
46932;DHT22;32670;51.464;11.964;2023-06-10T05:40:32;24.20;50.20
46932;DHT22;32670;51.464;11.964;2023-06-10T05:42:57;24.10;49.80
46932;DHT22;32670;51.464;11.964;2023-06-10T05:45:23;24.00;49.90
46932;DHT22;32670;51.464;11.964;2023-06-10T05:47:48;23.80;50.10
46932;DHT22;32670;51.464;11.964;2023-06-10T05:50:13;23.70;50.40
46932;DHT22;32670;51.464;11.964;2023-06-10T05:52:39;23.60;50.80
46932;DHT22;32670;51.464;11.964;2023-06-10T05:55:08;23.60;51.00
46932;DHT22;32670;51.464;11.964;2023-06-10T05:57:33;23.50;51.20
46932;DHT22;32670;51.464;11.964;2023-06-10T05:59:59;23.50;51.30
46932;DHT22;32670;51.464;11.964;2023-06-10T06:02:24;23.40;51.40
46932;DHT22;32670;51.464;11.964;2023-06-10T06:04:50;23.40;51.50
46932;DHT22;32670;51.464;11.964;2023-06-10T06:07:15;23.40;51.60
46932;DHT22;32670;51.464;11.964;2023-06-10T06:09:41;23.30;51.80
46932;DHT22;32670;51.464;11.964;2023-06-10T06:12:07;23.30;52.00
46932;DHT22;32670;51.464;11.964;2023-06-10T06:14:37;23.30;52.20
46932;DHT22;32670;51.464;11.964;2023-06-10T06:17:02;23.30;52.20
46932;DHT22;32670;51.464;11.964;2023-06-10T06:19:28;23.30;52.30
46932;DHT22;32670;51.464;11.964;2023-06-10T06:21:54;23.30;52.40
46932;DHT22;32670;51.464;11.964;2023-06-10T06:24:19;23.20;52.40
46932;DHT22;32670;51.464;11.964;2023-06-10T06:26:45;23.20;52.60
46932;DHT22;32670;51.464;11.964;2023-06-10T06:29:10;23.20;52.70
46932;DHT22;32670;51.464;11.964;2023-06-10T06:31:36;23.20;52.60
46932;DHT22;32670;51.464;11.964;2023-06-10T06:34:02;23.20;52.80
46932;DHT22;32670;51.464;11.964;2023-06-10T06:36:27;23.30;52.90
46932;DHT22;32670;51.464;11.964;2023-06-10T06:38:53;23.20;53.50
46932;DHT22;32670;51.464;11.964;2023-06-10T06:41:18;23.20;52.90
46932;DHT22;32670;51.464;11.964;2023-06-10T06:43:44;23.10;53.30
46932;DHT22;32670;51.464;11.964;2023-06-10T06:46:09;23.10;53.40
46932;DHT22;32670;51.464;11.964;2023-06-10T06:48:35;23.10;53.50
46932;DHT22;32670;51.464;11.964;2023-06-10T06:51:00;23.10;53.50
46932;DHT22;32670;51.464;11.964;2023-06-10T06:53:26;23.10;53.60
46932;DHT22;32670;51.464;11.964;2023-06-10T06:55:51;23.10;54.00
46932;DHT22;32670;51.464;11.964;2023-06-10T06:58:17;23.10;53.90
46932;DHT22;32670;51.464;11.964;2023-06-10T07:00:42;23.10;54.00
46932;DHT22;32670;51.464;11.964;2023-06-10T07:03:08;23.10;53.90
46932;DHT22;32670;51.464;11.964;2023-06-10T07:05:33;23.10;54.00
46932;DHT22;32670;51.464;11.964;2023-06-10T07:07:59;23.10;54.10
46932;DHT22;32670;51.464;11.964;2023-06-10T07:10:25;23.10;54.00
46932;DHT22;32670;51.464;11.964;2023-06-10T07:12:51;23.10;54.00
46932;DHT22;32670;51.464;11.964;2023-06-10T07:15:17;23.10;54.20
46932;DHT22;32670;51.464;11.964;2023-06-10T07:17:43;23.10;54.20
46932;DHT22;32670;51.464;11.964;2023-06-10T07:20:09;23.10;54.20
46932;DHT22;32670;51.464;11.964;2023-06-10T07:22:35;23.10;54.40
46932;DHT22;32670;51.464;11.964;2023-06-10T07:25:00;23.10;54.40
46932;DHT22;32670;51.464;11.964;2023-06-10T07:27:26;23.10;54.40
46932;DHT22;32670;51.464;11.964;2023-06-10T07:29:51;23.10;54.80
46932;DHT22;32670;51.464;11.964;2023-06-10T07:32:17;23.10;54.80
46932;DHT22;32670;51.464;11.964;2023-06-10T07:34:43;23.10;55.00
46932;DHT22;32670;51.464;11.964;2023-06-10T07:37:08;23.10;54.90
46932;DHT22;32670;51.464;11.964;2023-06-10T07:39:34;23.10;55.30
46932;DHT22;32670;51.464;11.964;2023-06-10T07:42:00;23.10;55.10
46932;DHT22;32670;51.464;11.964;2023-06-10T07:44:26;23.20;55.20
46932;DHT22;32670;51.464;11.964;2023-06-10T07:46:51;23.20;55.20
46932;DHT22;32670;51.464;11.964;2023-06-10T07:49:16;23.20;55.20
46932;DHT22;32670;51.464;11.964;2023-06-10T07:51:42;23.10;55.40
46932;DHT22;32670;51.464;11.964;2023-06-10T07:54:07;23.10;55.60
46932;DHT22;32670;51.464;11.964;2023-06-10T07:56:33;23.10;55.40
46932;DHT22;32670;51.464;11.964;2023-06-10T07:58:58;23.20;55.10
46932;DHT22;32670;51.464;11.964;2023-06-10T08:01:24;23.30;54.80
46932;DHT22;32670;51.464;11.964;2023-06-10T08:03:49;23.30;54.50
46932;DHT22;32670;51.464;11.964;2023-06-10T08:06:15;23.40;54.20
46932;DHT22;32670;51.464;11.964;2023-06-10T08:08:42;23.40;54.10
46932;DHT22;32670;51.464;11.964;2023-06-10T08:11:10;23.40;53.90
46932;DHT22;32670;51.464;11.964;2023-06-10T08:13:36;23.50;53.70
46932;DHT22;32670;51.464;11.964;2023-06-10T08:16:01;23.50;53.50
46932;DHT22;32670;51.464;11.964;2023-06-10T08:18:27;23.60;53.40
46932;DHT22;32670;51.464;11.964;2023-06-10T08:20:52;23.50;53.20
46932;DHT22;32670;51.464;11.964;2023-06-10T08:23:18;23.60;53.20
46932;DHT22;32670;51.464;11.964;2023-06-10T08:25:44;23.60;53.00
46932;DHT22;32670;51.464;11.964;2023-06-10T08:28:10;23.60;52.90
46932;DHT22;32670;51.464;11.964;2023-06-10T08:30:35;23.60;52.80
46932;DHT22;32670;51.464;11.964;2023-06-10T08:33:01;23.60;52.70
46932;DHT22;32670;51.464;11.964;2023-06-10T08:35:26;23.60;52.60
46932;DHT22;32670;51.464;11.964;2023-06-10T08:37:52;23.60;52.50
46932;DHT22;32670;51.464;11.964;2023-06-10T08:40:17;23.70;52.50
46932;DHT22;32670;51.464;11.964;2023-06-10T08:42:48;23.70;52.40
46932;DHT22;32670;51.464;11.964;2023-06-10T08:45:18;23.70;52.20
46932;DHT22;32670;51.464;11.964;2023-06-10T08:47:45;23.70;52.20
46932;DHT22;32670;51.464;11.964;2023-06-10T08:50:11;23.70;52.10
46932;DHT22;32670;51.464;11.964;2023-06-10T08:52:38;23.70;52.00
46932;DHT22;32670;51.464;11.964;2023-06-10T08:55:10;23.70;52.00
46932;DHT22;32670;51.464;11.964;2023-06-10T08:57:36;23.70;51.90
46932;DHT22;32670;51.464;11.964;2023-06-10T09:00:02;23.70;51.80
46932;DHT22;32670;51.464;11.964;2023-06-10T09:02:28;23.80;51.80
46932;DHT22;32670;51.464;11.964;2023-06-10T09:04:56;23.80;51.80
46932;DHT22;32670;51.464;11.964;2023-06-10T09:07:22;23.80;51.80
46932;DHT22;32670;51.464;11.964;2023-06-10T09:09:49;23.80;51.70
46932;DHT22;32670;51.464;11.964;2023-06-10T09:12:15;23.80;51.60
46932;DHT22;32670;51.464;11.964;2023-06-10T09:14:41;23.80;51.60
46932;DHT22;32670;51.464;11.964;2023-06-10T09:17:07;23.80;51.50
46932;DHT22;32670;51.464;11.964;2023-06-10T09:19:33;23.80;51.50
46932;DHT22;32670;51.464;11.964;2023-06-10T09:21:59;23.80;51.40
46932;DHT22;32670;51.464;11.964;2023-06-10T09:24:25;23.80;51.40
46932;DHT22;32670;51.464;11.964;2023-06-10T09:26:50;23.80;51.30
46932;DHT22;32670;51.464;11.964;2023-06-10T09:29:26;23.80;51.30
46932;DHT22;32670;51.464;11.964;2023-06-10T09:31:52;23.80;51.30
46932;DHT22;32670;51.464;11.964;2023-06-10T09:34:17;23.80;51.20
46932;DHT22;32670;51.464;11.964;2023-06-10T09:36:44;23.80;51.20
46932;DHT22;32670;51.464;11.964;2023-06-10T09:39:16;23.80;51.20
46932;DHT22;32670;51.464;11.964;2023-06-10T09:41:42;23.80;51.10
46932;DHT22;32670;51.464;11.964;2023-06-10T09:44:13;23.80;51.10
46932;DHT22;32670;51.464;11.964;2023-06-10T09:46:40;23.90;51.00
46932;DHT22;32670;51.464;11.964;2023-06-10T09:49:05;23.90;51.00
46932;DHT22;32670;51.464;11.964;2023-06-10T09:51:31;23.90;50.90
46932;DHT22;32670;51.464;11.964;2023-06-10T09:53:57;23.80;50.90
46932;DHT22;32670;51.464;11.964;2023-06-10T09:56:33;23.90;50.90
46932;DHT22;32670;51.464;11.964;2023-06-10T09:58:59;23.90;50.90
46932;DHT22;32670;51.464;11.964;2023-06-10T10:01:25;23.90;50.80
46932;DHT22;32670;51.464;11.964;2023-06-10T10:03:50;23.90;50.80
46932;DHT22;32670;51.464;11.964;2023-06-10T10:06:17;23.90;50.80
46932;DHT22;32670;51.464;11.964;2023-06-10T10:08:48;24.00;50.80
46932;DHT22;32670;51.464;11.964;2023-06-10T10:11:19;23.90;50.70
46932;DHT22;32670;51.464;11.964;2023-06-10T10:13:49;23.90;50.70
46932;DHT22;32670;51.464;11.964;2023-06-10T10:16:17;23.90;50.70
46932;DHT22;32670;51.464;11.964;2023-06-10T10:18:52;23.90;50.70
46932;DHT22;32670;51.464;11.964;2023-06-10T10:21:23;23.90;50.60
46932;DHT22;32670;51.464;11.964;2023-06-10T10:24:01;24.00;50.70
46932;DHT22;32670;51.464;11.964;2023-06-10T10:26:29;23.90;50.60
46932;DHT22;32670;51.464;11.964;2023-06-10T10:29:16;24.00;50.70
46932;DHT22;32670;51.464;11.964;2023-06-10T10:31:43;24.00;50.60
46932;DHT22;32670;51.464;11.964;2023-06-10T10:34:13;24.00;50.50
46932;DHT22;32670;51.464;11.964;2023-06-10T10:36:42;24.00;50.70
46932;DHT22;32670;51.464;11.964;2023-06-10T10:39:07;24.00;50.70
46932;DHT22;32670;51.464;11.964;2023-06-10T10:41:36;24.00;50.60
46932;DHT22;32670;51.464;11.964;2023-06-10T10:44:03;24.00;50.70
46932;DHT22;32670;51.464;11.964;2023-06-10T10:46:42;24.00;50.70
46932;DHT22;32670;51.464;11.964;2023-06-10T10:49:09;24.00;50.60
46932;DHT22;32670;51.464;11.964;2023-06-10T10:51:35;24.00;50.60
46932;DHT22;32670;51.464;11.964;2023-06-10T10:54:11;24.00;50.50
46932;DHT22;32670;51.464;11.964;2023-06-10T10:56:37;24.00;50.60
46932;DHT22;32670;51.464;11.964;2023-06-10T10:59:04;24.00;51.10
46932;DHT22;32670;51.464;11.964;2023-06-10T11:01:43;24.00;50.50
46932;DHT22;32670;51.464;11.964;2023-06-10T11:04:12;24.00;50.50
46932;DHT22;32670;51.464;11.964;2023-06-10T11:06:37;24.00;50.40
46932;DHT22;32670;51.464;11.964;2023-06-10T11:09:26;24.00;50.40
46932;DHT22;32670;51.464;11.964;2023-06-10T11:11:57;24.00;50.40
46932;DHT22;32670;51.464;11.964;2023-06-10T11:14:30;24.00;50.30
46932;DHT22;32670;51.464;11.964;2023-06-10T11:16:58;24.10;50.40
46932;DHT22;32670;51.464;11.964;2023-06-10T11:19:37;24.10;50.30
46932;DHT22;32670;51.464;11.964;2023-06-10T11:22:06;24.10;50.30
46932;DHT22;32670;51.464;11.964;2023-06-10T11:24:32;24.10;50.30
46932;DHT22;32670;51.464;11.964;2023-06-10T11:27:20;24.10;50.30
46932;DHT22;32670;51.464;11.964;2023-06-10T11:32:29;24.10;50.20
46932;DHT22;32670;51.464;11.964;2023-06-10T11:34:56;24.10;50.20
46932;DHT22;32670;51.464;11.964;2023-06-10T11:37:21;24.10;50.20
46932;DHT22;32670;51.464;11.964;2023-06-10T11:39:49;24.10;50.20
46932;DHT22;32670;51.464;11.964;2023-06-10T11:42:16;24.10;50.20
46932;DHT22;32670;51.464;11.964;2023-06-10T11:44:49;24.10;50.10
46932;DHT22;32670;51.464;11.964;2023-06-10T11:47:14;24.10;50.10
46932;DHT22;32670;51.464;11.964;2023-06-10T11:49:40;24.10;50.10
46932;DHT22;32670;51.464;11.964;2023-06-10T11:52:06;24.20;50.10
46932;DHT22;32670;51.464;11.964;2023-06-10T11:54:31;24.10;50.10
46932;DHT22;32670;51.464;11.964;2023-06-10T11:56:58;24.10;50.00
46932;DHT22;32670;51.464;11.964;2023-06-10T11:59:27;24.10;50.00
46932;DHT22;32670;51.464;11.964;2023-06-10T12:01:52;24.10;50.00
46932;DHT22;32670;51.464;11.964;2023-06-10T12:04:18;24.20;50.10
46932;DHT22;32670;51.464;11.964;2023-06-10T12:06:53;24.10;50.00
46932;DHT22;32670;51.464;11.964;2023-06-10T12:09:19;24.20;50.00
46932;DHT22;32670;51.464;11.964;2023-06-10T12:11:45;24.10;50.00
46932;DHT22;32670;51.464;11.964;2023-06-10T12:14:13;24.20;50.00
46932;DHT22;32670;51.464;11.964;2023-06-10T12:16:39;24.20;50.00
46932;DHT22;32670;51.464;11.964;2023-06-10T12:19:05;24.20;49.90
46932;DHT22;32670;51.464;11.964;2023-06-10T12:21:33;24.20;49.90
46932;DHT22;32670;51.464;11.964;2023-06-10T12:26:38;24.20;49.90
46932;DHT22;32670;51.464;11.964;2023-06-10T12:29:21;24.20;49.90
46932;DHT22;32670;51.464;11.964;2023-06-10T12:31:59;24.20;49.90
46932;DHT22;32670;51.464;11.964;2023-06-10T12:37:01;24.20;49.90
46932;DHT22;32670;51.464;11.964;2023-06-10T12:39:30;24.20;49.90
46932;DHT22;32670;51.464;11.964;2023-06-10T12:41:55;24.20;49.90
46932;DHT22;32670;51.464;11.964;2023-06-10T12:44:35;24.20;49.80
46932;DHT22;32670;51.464;11.964;2023-06-10T12:47:07;24.20;50.00
46932;DHT22;32670;51.464;11.964;2023-06-10T12:49:32;24.20;50.00
46932;DHT22;32670;51.464;11.964;2023-06-10T12:51:58;24.20;50.00
46932;DHT22;32670;51.464;11.964;2023-06-10T12:54:24;24.20;50.00
46932;DHT22;32670;51.464;11.964;2023-06-10T12:56:49;24.20;50.00
46932;DHT22;32670;51.464;11.964;2023-06-10T12:59:15;24.20;49.90
46932;DHT22;32670;51.464;11.964;2023-06-10T13:01:41;24.20;49.90
46932;DHT22;32670;51.464;11.964;2023-06-10T13:04:06;24.20;49.90
46932;DHT22;32670;51.464;11.964;2023-06-10T13:06:32;24.20;49.90
46932;DHT22;32670;51.464;11.964;2023-06-10T13:09:02;24.30;49.90
46932;DHT22;32670;51.464;11.964;2023-06-10T13:11:28;24.20;49.80
46932;DHT22;32670;51.464;11.964;2023-06-10T13:13:53;24.30;49.90
46932;DHT22;32670;51.464;11.964;2023-06-10T13:16:19;24.30;49.80
46932;DHT22;32670;51.464;11.964;2023-06-10T13:18:44;24.30;49.80
46932;DHT22;32670;51.464;11.964;2023-06-10T13:21:10;24.30;49.80
46932;DHT22;32670;51.464;11.964;2023-06-10T13:23:35;24.30;49.80
46932;DHT22;32670;51.464;11.964;2023-06-10T13:26:01;24.30;49.70
46932;DHT22;32670;51.464;11.964;2023-06-10T13:28:28;24.30;49.70
46932;DHT22;32670;51.464;11.964;2023-06-10T13:30:54;24.30;49.70
46932;DHT22;32670;51.464;11.964;2023-06-10T13:33:19;24.30;49.70
46932;DHT22;32670;51.464;11.964;2023-06-10T13:35:44;24.30;49.70
46932;DHT22;32670;51.464;11.964;2023-06-10T13:38:10;24.30;49.70
46932;DHT22;32670;51.464;11.964;2023-06-10T13:40:35;24.30;49.70
46932;DHT22;32670;51.464;11.964;2023-06-10T13:43:01;24.30;49.70
46932;DHT22;32670;51.464;11.964;2023-06-10T13:45:37;24.30;49.70
46932;DHT22;32670;51.464;11.964;2023-06-10T13:48:02;24.30;50.30
46932;DHT22;32670;51.464;11.964;2023-06-10T13:50:29;24.40;49.80
46932;DHT22;32670;51.464;11.964;2023-06-10T13:52:54;24.30;49.70
46932;DHT22;32670;51.464;11.964;2023-06-10T13:55:20;24.40;49.80
46932;DHT22;32670;51.464;11.964;2023-06-10T13:57:46;24.30;49.70
46932;DHT22;32670;51.464;11.964;2023-06-10T14:00:11;24.30;49.70
46932;DHT22;32670;51.464;11.964;2023-06-10T14:02:38;24.30;49.60
46932;DHT22;32670;51.464;11.964;2023-06-10T14:05:04;24.40;49.70
46932;DHT22;32670;51.464;11.964;2023-06-10T14:07:30;24.40;49.70
46932;DHT22;32670;51.464;11.964;2023-06-10T14:09:56;24.40;49.70
46932;DHT22;32670;51.464;11.964;2023-06-10T14:12:21;24.30;49.60
46932;DHT22;32670;51.464;11.964;2023-06-10T14:14:47;24.40;49.60
46932;DHT22;32670;51.464;11.964;2023-06-10T14:17:12;24.40;49.60
46932;DHT22;32670;51.464;11.964;2023-06-10T14:19:38;24.40;49.70
46932;DHT22;32670;51.464;11.964;2023-06-10T14:22:05;24.40;49.70
46932;DHT22;32670;51.464;11.964;2023-06-10T14:24:32;24.40;49.80
46932;DHT22;32670;51.464;11.964;2023-06-10T14:26:57;24.40;49.90
46932;DHT22;32670;51.464;11.964;2023-06-10T14:29:23;24.40;49.90
46932;DHT22;32670;51.464;11.964;2023-06-10T14:31:49;24.40;49.80
46932;DHT22;32670;51.464;11.964;2023-06-10T14:34:14;24.40;49.80
46932;DHT22;32670;51.464;11.964;2023-06-10T14:36:40;24.40;49.80
46932;DHT22;32670;51.464;11.964;2023-06-10T14:39:05;24.40;49.80
46932;DHT22;32670;51.464;11.964;2023-06-10T14:41:31;24.40;49.80
46932;DHT22;32670;51.464;11.964;2023-06-10T14:43:57;24.40;49.80
46932;DHT22;32670;51.464;11.964;2023-06-10T14:46:22;24.40;49.70
46932;DHT22;32670;51.464;11.964;2023-06-10T14:48:47;24.40;49.70
46932;DHT22;32670;51.464;11.964;2023-06-10T14:51:13;24.40;49.70
46932;DHT22;32670;51.464;11.964;2023-06-10T14:53:38;24.40;49.70
46932;DHT22;32670;51.464;11.964;2023-06-10T14:56:04;24.40;49.70
46932;DHT22;32670;51.464;11.964;2023-06-10T14:58:30;24.40;49.70
46932;DHT22;32670;51.464;11.964;2023-06-10T15:00:55;24.40;49.70
46932;DHT22;32670;51.464;11.964;2023-06-10T15:03:21;24.40;49.70
46932;DHT22;32670;51.464;11.964;2023-06-10T15:05:46;24.40;49.60
46932;DHT22;32670;51.464;11.964;2023-06-10T15:08:11;24.40;49.60
46932;DHT22;32670;51.464;11.964;2023-06-10T15:10:37;24.40;49.60
46932;DHT22;32670;51.464;11.964;2023-06-10T15:13:02;24.40;49.60
46932;DHT22;32670;51.464;11.964;2023-06-10T15:15:28;24.40;49.60
46932;DHT22;32670;51.464;11.964;2023-06-10T15:17:53;24.40;49.60
46932;DHT22;32670;51.464;11.964;2023-06-10T15:20:19;24.40;49.60